sensor_id;sensor_type;location;lat;lon;timestamp;P1;durP1;ratioP1;P2;durP2;ratioP2
46589;SDS011;32313;48.722;9.362;2022-07-23T00:00:29;6.20;;;5.27;;
46589;SDS011;32313;48.722;9.362;2022-07-23T00:02:55;6.00;;;5.40;;
46589;SDS011;32313;48.722;9.362;2022-07-23T00:05:21;6.23;;;5.70;;
46589;SDS011;32313;48.722;9.362;2022-07-23T00:07:47;6.57;;;5.77;;
46589;SDS011;32313;48.722;9.362;2022-07-23T00:10:12;6.23;;;5.67;;
46589;SDS011;32313;48.722;9.362;2022-07-23T00:12:38;6.70;;;5.20;;
46589;SDS011;32313;48.722;9.362;2022-07-23T00:15:05;8.37;;;5.80;;
46589;SDS011;32313;48.722;9.362;2022-07-23T00:17:32;6.20;;;5.70;;
46589;SDS011;32313;48.722;9.362;2022-07-23T00:19:58;5.63;;;5.23;;
46589;SDS011;32313;48.722;9.362;2022-07-23T00:22:24;7.73;;;5.67;;
46589;SDS011;32313;48.722;9.362;2022-07-23T00:24:51;5.77;;;5.37;;
46589;SDS011;32313;48.722;9.362;2022-07-23T00:27:16;6.20;;;5.60;;
46589;SDS011;32313;48.722;9.362;2022-07-23T00:29:42;5.80;;;5.17;;
46589;SDS011;32313;48.722;9.362;2022-07-23T00:32:08;5.83;;;5.33;;
46589;SDS011;32313;48.722;9.362;2022-07-23T00:34:34;5.50;;;5.00;;
46589;SDS011;32313;48.722;9.362;2022-07-23T00:36:59;5.43;;;5.03;;
46589;SDS011;32313;48.722;9.362;2022-07-23T00:39:25;5.50;;;5.00;;
46589;SDS011;32313;48.722;9.362;2022-07-23T00:41:51;5.97;;;5.43;;
46589;SDS011;32313;48.722;9.362;2022-07-23T00:44:17;5.83;;;5.23;;
46589;SDS011;32313;48.722;9.362;2022-07-23T00:46:46;6.27;;;5.67;;
46589;SDS011;32313;48.722;9.362;2022-07-23T00:49:13;6.27;;;5.60;;
46589;SDS011;32313;48.722;9.362;2022-07-23T00:51:39;7.13;;;5.53;;
46589;SDS011;32313;48.722;9.362;2022-07-23T00:54:06;5.60;;;4.90;;
46589;SDS011;32313;48.722;9.362;2022-07-23T00:56:31;5.53;;;5.07;;
46589;SDS011;32313;48.722;9.362;2022-07-23T00:58:59;5.40;;;4.90;;
46589;SDS011;32313;48.722;9.362;2022-07-23T01:01:25;5.40;;;4.90;;
46589;SDS011;32313;48.722;9.362;2022-07-23T01:03:51;5.83;;;5.17;;
46589;SDS011;32313;48.722;9.362;2022-07-23T01:06:17;5.73;;;5.00;;
46589;SDS011;32313;48.722;9.362;2022-07-23T01:08:43;4.90;;;4.50;;
46589;SDS011;32313;48.722;9.362;2022-07-23T01:11:08;5.03;;;4.50;;
46589;SDS011;32313;48.722;9.362;2022-07-23T01:13:34;4.40;;;4.00;;
46589;SDS011;32313;48.722;9.362;2022-07-23T01:16:00;4.30;;;3.90;;
46589;SDS011;32313;48.722;9.362;2022-07-23T01:18:26;4.63;;;4.00;;
46589;SDS011;32313;48.722;9.362;2022-07-23T01:20:51;4.13;;;3.83;;
46589;SDS011;32313;48.722;9.362;2022-07-23T01:23:17;4.50;;;4.10;;
46589;SDS011;32313;48.722;9.362;2022-07-23T01:25:49;5.27;;;4.40;;
46589;SDS011;32313;48.722;9.362;2022-07-23T01:28:18;4.20;;;3.90;;
46589;SDS011;32313;48.722;9.362;2022-07-23T01:30:44;4.40;;;3.97;;
46589;SDS011;32313;48.722;9.362;2022-07-23T01:33:10;4.13;;;3.83;;
46589;SDS011;32313;48.722;9.362;2022-07-23T01:35:36;4.90;;;4.50;;
46589;SDS011;32313;48.722;9.362;2022-07-23T01:38:05;5.20;;;4.07;;
46589;SDS011;32313;48.722;9.362;2022-07-23T01:40:31;4.63;;;4.23;;
46589;SDS011;32313;48.722;9.362;2022-07-23T01:42:57;4.50;;;4.10;;
46589;SDS011;32313;48.722;9.362;2022-07-23T01:45:22;4.90;;;4.50;;
46589;SDS011;32313;48.722;9.362;2022-07-23T01:47:50;4.73;;;4.20;;
46589;SDS011;32313;48.722;9.362;2022-07-23T01:50:16;4.77;;;4.37;;
46589;SDS011;32313;48.722;9.362;2022-07-23T01:52:46;4.73;;;4.33;;
46589;SDS011;32313;48.722;9.362;2022-07-23T01:55:12;5.03;;;4.53;;
46589;SDS011;32313;48.722;9.362;2022-07-23T01:57:41;5.10;;;4.70;;
46589;SDS011;32313;48.722;9.362;2022-07-23T02:00:08;4.70;;;4.30;;
46589;SDS011;32313;48.722;9.362;2022-07-23T02:02:46;4.50;;;4.10;;
46589;SDS011;32313;48.722;9.362;2022-07-23T02:05:11;4.90;;;4.50;;
46589;SDS011;32313;48.722;9.362;2022-07-23T02:07:37;4.80;;;4.40;;
46589;SDS011;32313;48.722;9.362;2022-07-23T02:10:03;4.93;;;4.40;;
46589;SDS011;32313;48.722;9.362;2022-07-23T02:12:29;4.97;;;4.57;;
46589;SDS011;32313;48.722;9.362;2022-07-23T02:14:55;4.50;;;4.10;;
46589;SDS011;32313;48.722;9.362;2022-07-23T02:17:20;4.60;;;4.30;;
46589;SDS011;32313;48.722;9.362;2022-07-23T02:19:46;5.00;;;4.60;;
46589;SDS011;32313;48.722;9.362;2022-07-23T02:22:12;5.20;;;4.60;;
46589;SDS011;32313;48.722;9.362;2022-07-23T02:24:37;4.93;;;4.43;;
46589;SDS011;32313;48.722;9.362;2022-07-23T02:27:03;4.90;;;4.50;;
46589;SDS011;32313;48.722;9.362;2022-07-23T02:29:32;4.67;;;4.33;;
46589;SDS011;32313;48.722;9.362;2022-07-23T02:31:58;5.03;;;4.47;;
46589;SDS011;32313;48.722;9.362;2022-07-23T02:34:24;5.13;;;4.70;;
46589;SDS011;32313;48.722;9.362;2022-07-23T02:36:49;4.90;;;4.50;;
46589;SDS011;32313;48.722;9.362;2022-07-23T02:39:15;4.73;;;4.33;;
46589;SDS011;32313;48.722;9.362;2022-07-23T02:41:42;5.07;;;4.53;;
46589;SDS011;32313;48.722;9.362;2022-07-23T02:44:08;5.47;;;5.00;;
46589;SDS011;32313;48.722;9.362;2022-07-23T02:46:35;5.37;;;4.97;;
46589;SDS011;32313;48.722;9.362;2022-07-23T02:49:01;6.50;;;4.77;;
46589;SDS011;32313;48.722;9.362;2022-07-23T02:51:30;5.07;;;4.67;;
46589;SDS011;32313;48.722;9.362;2022-07-23T02:54:00;5.47;;;4.97;;
46589;SDS011;32313;48.722;9.362;2022-07-23T02:56:26;5.70;;;5.20;;
46589;SDS011;32313;48.722;9.362;2022-07-23T02:58:51;5.60;;;5.20;;
46589;SDS011;32313;48.722;9.362;2022-07-23T03:01:17;5.37;;;4.97;;
46589;SDS011;32313;48.722;9.362;2022-07-23T03:03:44;5.50;;;4.97;;
46589;SDS011;32313;48.722;9.362;2022-07-23T03:06:10;5.57;;;5.17;;
46589;SDS011;32313;48.722;9.362;2022-07-23T03:08:38;5.10;;;4.70;;
46589;SDS011;32313;48.722;9.362;2022-07-23T03:11:04;14.53;;;6.13;;
46589;SDS011;32313;48.722;9.362;2022-07-23T03:13:31;5.40;;;4.70;;
46589;SDS011;32313;48.722;9.362;2022-07-23T03:15:57;6.17;;;5.67;;
46589;SDS011;32313;48.722;9.362;2022-07-23T03:18:23;6.60;;;5.73;;
46589;SDS011;32313;48.722;9.362;2022-07-23T03:20:52;5.77;;;5.17;;
46589;SDS011;32313;48.722;9.362;2022-07-23T03:23:18;5.03;;;4.53;;
46589;SDS011;32313;48.722;9.362;2022-07-23T03:25:47;5.90;;;5.40;;
46589;SDS011;32313;48.722;9.362;2022-07-23T03:28:14;5.77;;;5.27;;
46589;SDS011;32313;48.722;9.362;2022-07-23T03:30:41;5.23;;;4.83;;
46589;SDS011;32313;48.722;9.362;2022-07-23T03:33:14;6.53;;;5.57;;
46589;SDS011;32313;48.722;9.362;2022-07-23T03:35:42;6.10;;;5.60;;
46589;SDS011;32313;48.722;9.362;2022-07-23T03:38:21;6.83;;;6.20;;
46589;SDS011;32313;48.722;9.362;2022-07-23T03:40:47;6.33;;;5.80;;
46589;SDS011;32313;48.722;9.362;2022-07-23T03:43:13;6.30;;;5.70;;
46589;SDS011;32313;48.722;9.362;2022-07-23T03:45:39;5.90;;;5.40;;
46589;SDS011;32313;48.722;9.362;2022-07-23T03:48:04;6.77;;;6.00;;
46589;SDS011;32313;48.722;9.362;2022-07-23T03:50:30;6.90;;;6.23;;
46589;SDS011;32313;48.722;9.362;2022-07-23T03:52:56;7.53;;;5.77;;
46589;SDS011;32313;48.722;9.362;2022-07-23T03:55:22;6.83;;;6.20;;
46589;SDS011;32313;48.722;9.362;2022-07-23T03:57:47;6.13;;;5.63;;
46589;SDS011;32313;48.722;9.362;2022-07-23T04:00:13;6.73;;;6.13;;
46589;SDS011;32313;48.722;9.362;2022-07-23T04:02:41;6.77;;;6.17;;
46589;SDS011;32313;48.722;9.362;2022-07-23T04:05:08;7.30;;;6.43;;
46589;SDS011;32313;48.722;9.362;2022-07-23T04:07:34;6.87;;;6.27;;
46589;SDS011;32313;48.722;9.362;2022-07-23T04:09:59;7.03;;;6.30;;
46589;SDS011;32313;48.722;9.362;2022-07-23T04:12:26;7.37;;;6.67;;
46589;SDS011;32313;48.722;9.362;2022-07-23T04:14:52;7.70;;;6.93;;
46589;SDS011;32313;48.722;9.362;2022-07-23T04:17:18;8.17;;;7.43;;
46589;SDS011;32313;48.722;9.362;2022-07-23T04:19:44;8.07;;;7.37;;
46589;SDS011;32313;48.722;9.362;2022-07-23T04:22:11;7.93;;;7.23;;
46589;SDS011;32313;48.722;9.362;2022-07-23T04:24:37;8.37;;;7.60;;
46589;SDS011;32313;48.722;9.362;2022-07-23T04:27:03;8.33;;;7.47;;
46589;SDS011;32313;48.722;9.362;2022-07-23T04:29:31;7.10;;;6.50;;
46589;SDS011;32313;48.722;9.362;2022-07-23T04:31:57;7.50;;;6.80;;
46589;SDS011;32313;48.722;9.362;2022-07-23T04:34:23;6.70;;;6.10;;
46589;SDS011;32313;48.722;9.362;2022-07-23T04:36:50;7.13;;;6.43;;
46589;SDS011;32313;48.722;9.362;2022-07-23T04:39:16;7.43;;;6.70;;
46589;SDS011;32313;48.722;9.362;2022-07-23T04:41:42;7.10;;;6.47;;
46589;SDS011;32313;48.722;9.362;2022-07-23T04:44:08;8.00;;;6.97;;
46589;SDS011;32313;48.722;9.362;2022-07-23T04:46:34;7.27;;;6.50;;
46589;SDS011;32313;48.722;9.362;2022-07-23T04:49:00;7.20;;;6.60;;
46589;SDS011;32313;48.722;9.362;2022-07-23T04:51:26;7.20;;;6.50;;
46589;SDS011;32313;48.722;9.362;2022-07-23T04:53:53;7.13;;;6.53;;
46589;SDS011;32313;48.722;9.362;2022-07-23T04:56:19;7.10;;;6.60;;
46589;SDS011;32313;48.722;9.362;2022-07-23T04:58:45;7.63;;;6.83;;
46589;SDS011;32313;48.722;9.362;2022-07-23T05:01:10;6.97;;;6.47;;
46589;SDS011;32313;48.722;9.362;2022-07-23T05:03:36;7.57;;;6.87;;
46589;SDS011;32313;48.722;9.362;2022-07-23T05:06:03;7.70;;;7.00;;
46589;SDS011;32313;48.722;9.362;2022-07-23T05:08:29;7.53;;;6.77;;
46589;SDS011;32313;48.722;9.362;2022-07-23T05:10:57;7.33;;;6.63;;
46589;SDS011;32313;48.722;9.362;2022-07-23T05:13:22;7.30;;;6.57;;
46589;SDS011;32313;48.722;9.362;2022-07-23T05:15:51;6.83;;;6.23;;
46589;SDS011;32313;48.722;9.362;2022-07-23T05:18:16;6.93;;;6.30;;
46589;SDS011;32313;48.722;9.362;2022-07-23T05:20:43;7.37;;;6.77;;
46589;SDS011;32313;48.722;9.362;2022-07-23T05:23:12;7.07;;;6.43;;
46589;SDS011;32313;48.722;9.362;2022-07-23T05:25:40;6.87;;;6.27;;
46589;SDS011;32313;48.722;9.362;2022-07-23T05:28:06;6.97;;;6.37;;
46589;SDS011;32313;48.722;9.362;2022-07-23T05:30:32;7.87;;;7.07;;
46589;SDS011;32313;48.722;9.362;2022-07-23T05:33:01;7.23;;;6.30;;
46589;SDS011;32313;48.722;9.362;2022-07-23T05:35:26;6.90;;;6.30;;
46589;SDS011;32313;48.722;9.362;2022-07-23T05:38:13;6.83;;;6.23;;
46589;SDS011;32313;48.722;9.362;2022-07-23T05:40:38;7.27;;;6.67;;
46589;SDS011;32313;48.722;9.362;2022-07-23T05:43:04;7.27;;;6.57;;
46589;SDS011;32313;48.722;9.362;2022-07-23T05:45:30;7.20;;;6.60;;
46589;SDS011;32313;48.722;9.362;2022-07-23T05:47:56;7.17;;;6.23;;
46589;SDS011;32313;48.722;9.362;2022-07-23T05:50:27;7.40;;;6.70;;
46589;SDS011;32313;48.722;9.362;2022-07-23T05:52:59;6.53;;;6.03;;
46589;SDS011;32313;48.722;9.362;2022-07-23T05:55:43;7.50;;;6.77;;
46589;SDS011;32313;48.722;9.362;2022-07-23T05:58:09;7.50;;;6.80;;
46589;SDS011;32313;48.722;9.362;2022-07-23T06:00:35;7.03;;;6.43;;
46589;SDS011;32313;48.722;9.362;2022-07-23T06:03:01;7.47;;;6.87;;
46589;SDS011;32313;48.722;9.362;2022-07-23T06:05:29;7.37;;;6.60;;
46589;SDS011;32313;48.722;9.362;2022-07-23T06:07:56;7.50;;;6.90;;
46589;SDS011;32313;48.722;9.362;2022-07-23T06:10:23;6.60;;;6.10;;
46589;SDS011;32313;48.722;9.362;2022-07-23T06:12:49;8.63;;;6.40;;
46589;SDS011;32313;48.722;9.362;2022-07-23T06:15:14;7.37;;;6.77;;
46589;SDS011;32313;48.722;9.362;2022-07-23T06:17:40;7.30;;;6.17;;
46589;SDS011;32313;48.722;9.362;2022-07-23T06:20:07;8.07;;;6.40;;
46589;SDS011;32313;48.722;9.362;2022-07-23T06:22:36;7.00;;;6.40;;
46589;SDS011;32313;48.722;9.362;2022-07-23T06:25:02;7.93;;;7.20;;
46589;SDS011;32313;48.722;9.362;2022-07-23T06:27:28;7.23;;;6.53;;
46589;SDS011;32313;48.722;9.362;2022-07-23T06:29:54;7.47;;;6.77;;
46589;SDS011;32313;48.722;9.362;2022-07-23T06:32:20;7.20;;;6.60;;
46589;SDS011;32313;48.722;9.362;2022-07-23T06:34:46;7.20;;;6.50;;
46589;SDS011;32313;48.722;9.362;2022-07-23T06:37:12;7.33;;;6.67;;
46589;SDS011;32313;48.722;9.362;2022-07-23T06:39:37;7.17;;;6.47;;
46589;SDS011;32313;48.722;9.362;2022-07-23T06:42:03;6.80;;;6.10;;
46589;SDS011;32313;48.722;9.362;2022-07-23T06:44:38;7.33;;;6.60;;
46589;SDS011;32313;48.722;9.362;2022-07-23T06:47:06;6.60;;;6.07;;
46589;SDS011;32313;48.722;9.362;2022-07-23T06:49:32;7.20;;;6.53;;
46589;SDS011;32313;48.722;9.362;2022-07-23T06:51:58;7.13;;;6.43;;
46589;SDS011;32313;48.722;9.362;2022-07-23T06:54:23;6.57;;;6.03;;
46589;SDS011;32313;48.722;9.362;2022-07-23T06:56:49;10.13;;;6.40;;
46589;SDS011;32313;48.722;9.362;2022-07-23T06:59:15;6.30;;;5.80;;
46589;SDS011;32313;48.722;9.362;2022-07-23T07:01:42;6.43;;;5.90;;
46589;SDS011;32313;48.722;9.362;2022-07-23T07:04:07;6.77;;;6.17;;
46589;SDS011;32313;48.722;9.362;2022-07-23T07:06:33;9.25;;;6.18;;
46589;SDS011;32313;48.722;9.362;2022-07-23T07:08:59;6.80;;;5.45;;
46589;SDS011;32313;48.722;9.362;2022-07-23T07:11:25;6.00;;;5.60;;
46589;SDS011;32313;48.722;9.362;2022-07-23T07:13:51;7.53;;;5.78;;
46589;SDS011;32313;48.722;9.362;2022-07-23T07:16:16;6.18;;;5.60;;
46589;SDS011;32313;48.722;9.362;2022-07-23T07:18:42;6.07;;;5.43;;
46589;SDS011;32313;48.722;9.362;2022-07-23T07:21:08;5.63;;;5.13;;
46589;SDS011;32313;48.722;9.362;2022-07-23T07:23:34;6.22;;;5.65;;
46589;SDS011;32313;48.722;9.362;2022-07-23T07:25:59;5.97;;;5.47;;
46589;SDS011;32313;48.722;9.362;2022-07-23T07:28:25;7.50;;;5.40;;
46589;SDS011;32313;48.722;9.362;2022-07-23T07:30:51;5.78;;;5.18;;
46589;SDS011;32313;48.722;9.362;2022-07-23T07:33:17;7.78;;;5.70;;
46589;SDS011;32313;48.722;9.362;2022-07-23T07:35:43;5.45;;;5.05;;
46589;SDS011;32313;48.722;9.362;2022-07-23T07:38:08;5.38;;;4.88;;
46589;SDS011;32313;48.722;9.362;2022-07-23T07:40:34;5.45;;;5.00;;
46589;SDS011;32313;48.722;9.362;2022-07-23T07:43:00;5.90;;;5.30;;
46589;SDS011;32313;48.722;9.362;2022-07-23T07:45:26;6.85;;;5.45;;
46589;SDS011;32313;48.722;9.362;2022-07-23T07:47:52;6.13;;;5.35;;
46589;SDS011;32313;48.722;9.362;2022-07-23T07:50:19;5.75;;;5.25;;
46589;SDS011;32313;48.722;9.362;2022-07-23T07:52:45;6.57;;;5.50;;
46589;SDS011;32313;48.722;9.362;2022-07-23T07:55:11;6.05;;;5.35;;
46589;SDS011;32313;48.722;9.362;2022-07-23T07:57:37;6.07;;;5.47;;
46589;SDS011;32313;48.722;9.362;2022-07-23T08:00:04;6.20;;;5.70;;
46589;SDS011;32313;48.722;9.362;2022-07-23T08:02:47;5.72;;;5.18;;
46589;SDS011;32313;48.722;9.362;2022-07-23T08:05:14;5.18;;;4.70;;
46589;SDS011;32313;48.722;9.362;2022-07-23T08:07:43;7.53;;;5.28;;
46589;SDS011;32313;48.722;9.362;2022-07-23T08:10:09;5.63;;;4.97;;
46589;SDS011;32313;48.722;9.362;2022-07-23T08:12:42;5.15;;;4.75;;
46589;SDS011;32313;48.722;9.362;2022-07-23T08:15:10;6.32;;;5.05;;
46589;SDS011;32313;48.722;9.362;2022-07-23T08:17:37;5.18;;;4.68;;
46589;SDS011;32313;48.722;9.362;2022-07-23T08:20:03;5.55;;;5.05;;
46589;SDS011;32313;48.722;9.362;2022-07-23T08:22:46;5.53;;;5.00;;
46589;SDS011;32313;48.722;9.362;2022-07-23T08:25:19;5.90;;;5.05;;
46589;SDS011;32313;48.722;9.362;2022-07-23T08:27:50;4.82;;;4.43;;
46589;SDS011;32313;48.722;9.362;2022-07-23T08:30:16;5.45;;;4.88;;
46589;SDS011;32313;48.722;9.362;2022-07-23T08:37:55;5.75;;;4.93;;
46589;SDS011;32313;48.722;9.362;2022-07-23T08:40:22;5.35;;;4.85;;
46589;SDS011;32313;48.722;9.362;2022-07-23T08:42:49;5.63;;;5.05;;
46589;SDS011;32313;48.722;9.362;2022-07-23T08:45:16;6.38;;;4.95;;
46589;SDS011;32313;48.722;9.362;2022-07-23T08:47:44;6.50;;;5.05;;
46589;SDS011;32313;48.722;9.362;2022-07-23T08:50:09;5.65;;;5.18;;
46589;SDS011;32313;48.722;9.362;2022-07-23T08:52:36;7.00;;;5.03;;
46589;SDS011;32313;48.722;9.362;2022-07-23T08:55:03;5.05;;;4.65;;
46589;SDS011;32313;48.722;9.362;2022-07-23T08:57:30;8.10;;;5.30;;
46589;SDS011;32313;48.722;9.362;2022-07-23T08:59:56;7.20;;;5.45;;
46589;SDS011;32313;48.722;9.362;2022-07-23T09:02:21;6.10;;;5.50;;
46589;SDS011;32313;48.722;9.362;2022-07-23T09:04:47;5.47;;;4.95;;
46589;SDS011;32313;48.722;9.362;2022-07-23T09:07:13;5.80;;;5.25;;
46589;SDS011;32313;48.722;9.362;2022-07-23T09:09:39;6.63;;;6.03;;
46589;SDS011;32313;48.722;9.362;2022-07-23T09:12:05;5.93;;;5.18;;
46589;SDS011;32313;48.722;9.362;2022-07-23T09:14:42;6.25;;;5.75;;
46589;SDS011;32313;48.722;9.362;2022-07-23T09:17:10;6.10;;;5.50;;
46589;SDS011;32313;48.722;9.362;2022-07-23T09:19:41;6.47;;;5.88;;
46589;SDS011;32313;48.722;9.362;2022-07-23T09:22:24;5.95;;;5.35;;
46589;SDS011;32313;48.722;9.362;2022-07-23T09:25:04;6.20;;;5.68;;
46589;SDS011;32313;48.722;9.362;2022-07-23T09:27:45;9.00;;;5.47;;
46589;SDS011;32313;48.722;9.362;2022-07-23T09:30:29;6.70;;;5.22;;
46589;SDS011;32313;48.722;9.362;2022-07-23T09:35:51;6.20;;;5.18;;
46589;SDS011;32313;48.722;9.362;2022-07-23T09:38:24;6.10;;;5.50;;
46589;SDS011;32313;48.722;9.362;2022-07-23T09:41:23;5.35;;;4.78;;
46589;SDS011;32313;48.722;9.362;2022-07-23T09:43:42;5.47;;;4.97;;
46589;SDS011;32313;48.722;9.362;2022-07-23T09:46:24;5.22;;;4.75;;
46589;SDS011;32313;48.722;9.362;2022-07-23T09:48:54;5.20;;;4.65;;
46589;SDS011;32313;48.722;9.362;2022-07-23T09:51:22;5.20;;;4.80;;
46589;SDS011;32313;48.722;9.362;2022-07-23T09:53:58;5.18;;;4.70;;
46589;SDS011;32313;48.722;9.362;2022-07-23T09:56:23;4.78;;;4.38;;
46589;SDS011;32313;48.722;9.362;2022-07-23T09:58:52;5.38;;;4.93;;
46589;SDS011;32313;48.722;9.362;2022-07-23T10:01:37;5.47;;;4.97;;
46589;SDS011;32313;48.722;9.362;2022-07-23T10:04:04;5.53;;;4.28;;
46589;SDS011;32313;48.722;9.362;2022-07-23T10:07:02;4.85;;;4.35;;
46589;SDS011;32313;48.722;9.362;2022-07-23T10:10:07;6.95;;;5.18;;
46589;SDS011;32313;48.722;9.362;2022-07-23T10:12:53;5.53;;;4.90;;
46589;SDS011;32313;48.722;9.362;2022-07-23T10:15:24;5.68;;;5.18;;
46589;SDS011;32313;48.722;9.362;2022-07-23T10:17:50;5.57;;;4.88;;
46589;SDS011;32313;48.722;9.362;2022-07-23T10:20:16;5.05;;;4.63;;
46589;SDS011;32313;48.722;9.362;2022-07-23T10:22:44;5.00;;;4.60;;
46589;SDS011;32313;48.722;9.362;2022-07-23T10:26:08;4.60;;;4.20;;
46589;SDS011;32313;48.722;9.362;2022-07-23T10:34:34;4.97;;;4.57;;
46589;SDS011;32313;48.722;9.362;2022-07-23T10:40:13;5.28;;;4.78;;
46589;SDS011;32313;48.722;9.362;2022-07-23T10:42:44;10.13;;;5.22;;
46589;SDS011;32313;48.722;9.362;2022-07-23T10:59:17;4.50;;;4.10;;
46589;SDS011;32313;48.722;9.362;2022-07-23T11:01:43;4.57;;;4.13;;
46589;SDS011;32313;48.722;9.362;2022-07-23T11:04:09;5.00;;;4.50;;
46589;SDS011;32313;48.722;9.362;2022-07-23T11:09:30;4.60;;;4.20;;
46589;SDS011;32313;48.722;9.362;2022-07-23T11:17:25;4.60;;;4.20;;
46589;SDS011;32313;48.722;9.362;2022-07-23T11:25:33;4.80;;;4.40;;
46589;SDS011;32313;48.722;9.362;2022-07-23T11:28:14;4.70;;;4.30;;
46589;SDS011;32313;48.722;9.362;2022-07-23T11:30:43;4.57;;;4.13;;
46589;SDS011;32313;48.722;9.362;2022-07-23T11:35:36;4.10;;;3.80;;
46589;SDS011;32313;48.722;9.362;2022-07-23T11:38:05;4.30;;;3.90;;
46589;SDS011;32313;48.722;9.362;2022-07-23T11:40:33;3.92;;;3.53;;
46589;SDS011;32313;48.722;9.362;2022-07-23T11:45:46;4.45;;;4.10;;
46589;SDS011;32313;48.722;9.362;2022-07-23T11:48:21;4.03;;;3.72;;
46589;SDS011;32313;48.722;9.362;2022-07-23T11:50:49;4.22;;;3.90;;
46589;SDS011;32313;48.722;9.362;2022-07-23T11:53:25;4.53;;;4.20;;
46589;SDS011;32313;48.722;9.362;2022-07-23T11:55:53;4.38;;;3.97;;
46589;SDS011;32313;48.722;9.362;2022-07-23T11:58:20;4.63;;;3.80;;
46589;SDS011;32313;48.722;9.362;2022-07-23T12:00:46;4.00;;;3.70;;
46589;SDS011;32313;48.722;9.362;2022-07-23T12:03:12;4.00;;;3.70;;
46589;SDS011;32313;48.722;9.362;2022-07-23T12:05:38;4.28;;;3.88;;
46589;SDS011;32313;48.722;9.362;2022-07-23T12:08:05;4.53;;;4.13;;
46589;SDS011;32313;48.722;9.362;2022-07-23T12:10:37;4.45;;;4.05;;
46589;SDS011;32313;48.722;9.362;2022-07-23T12:13:16;4.50;;;4.10;;
46589;SDS011;32313;48.722;9.362;2022-07-23T12:15:48;4.38;;;3.97;;
46589;SDS011;32313;48.722;9.362;2022-07-23T12:18:20;5.03;;;4.63;;
46589;SDS011;32313;48.722;9.362;2022-07-23T12:20:48;4.80;;;4.50;;
46589;SDS011;32313;48.722;9.362;2022-07-23T12:23:17;4.53;;;4.22;;
46589;SDS011;32313;48.722;9.362;2022-07-23T12:25:45;4.82;;;4.43;;
46589;SDS011;32313;48.722;9.362;2022-07-23T12:28:13;4.50;;;4.10;;
46589;SDS011;32313;48.722;9.362;2022-07-23T12:30:49;4.63;;;4.22;;
46589;SDS011;32313;48.722;9.362;2022-07-23T12:33:26;4.53;;;4.22;;
46589;SDS011;32313;48.722;9.362;2022-07-23T12:35:53;4.57;;;4.18;;
46589;SDS011;32313;48.722;9.362;2022-07-23T12:38:21;4.47;;;4.07;;
46589;SDS011;32313;48.722;9.362;2022-07-23T12:40:52;4.95;;;4.00;;
46589;SDS011;32313;48.722;9.362;2022-07-23T12:43:24;4.53;;;4.10;;
46589;SDS011;32313;48.722;9.362;2022-07-23T12:46:09;4.75;;;3.92;;
46589;SDS011;32313;48.722;9.362;2022-07-23T12:49:00;5.13;;;4.63;;
46589;SDS011;32313;48.722;9.362;2022-07-23T12:51:29;4.60;;;4.20;;
46589;SDS011;32313;48.722;9.362;2022-07-23T12:54:07;4.47;;;4.07;;
46589;SDS011;32313;48.722;9.362;2022-07-23T12:56:35;4.18;;;3.88;;
46589;SDS011;32313;48.722;9.362;2022-07-23T13:01:29;4.68;;;4.28;;
46589;SDS011;32313;48.722;9.362;2022-07-23T13:04:04;5.22;;;3.97;;
46589;SDS011;32313;48.722;9.362;2022-07-23T13:06:34;5.85;;;4.40;;
46589;SDS011;32313;48.722;9.362;2022-07-23T13:09:01;4.28;;;3.97;;
46589;SDS011;32313;48.722;9.362;2022-07-23T13:11:28;5.22;;;3.83;;
46589;SDS011;32313;48.722;9.362;2022-07-23T13:13:54;5.25;;;4.60;;
46589;SDS011;32313;48.722;9.362;2022-07-23T13:16:20;6.20;;;4.97;;
46589;SDS011;32313;48.722;9.362;2022-07-23T13:18:45;4.70;;;4.30;;
46589;SDS011;32313;48.722;9.362;2022-07-23T13:21:11;4.55;;;4.15;;
46589;SDS011;32313;48.722;9.362;2022-07-23T13:23:37;4.35;;;4.03;;
46589;SDS011;32313;48.722;9.362;2022-07-23T13:26:03;4.97;;;4.38;;
46589;SDS011;32313;48.722;9.362;2022-07-23T13:28:29;4.35;;;4.05;;
46589;SDS011;32313;48.722;9.362;2022-07-23T13:30:55;4.78;;;4.38;;
46589;SDS011;32313;48.722;9.362;2022-07-23T13:33:22;4.47;;;4.07;;
46589;SDS011;32313;48.722;9.362;2022-07-23T13:35:49;3.88;;;3.58;;
46589;SDS011;32313;48.722;9.362;2022-07-23T13:38:16;4.60;;;4.20;;
46589;SDS011;32313;48.722;9.362;2022-07-23T13:40:44;4.65;;;4.25;;
46589;SDS011;32313;48.722;9.362;2022-07-23T13:43:12;5.78;;;4.80;;
46589;SDS011;32313;48.722;9.362;2022-07-23T13:45:40;4.47;;;4.18;;
46589;SDS011;32313;48.722;9.362;2022-07-23T13:48:11;5.32;;;4.82;;
46589;SDS011;32313;48.722;9.362;2022-07-23T13:50:37;4.93;;;4.00;;
46589;SDS011;32313;48.722;9.362;2022-07-23T13:53:05;6.35;;;4.72;;
46589;SDS011;32313;48.722;9.362;2022-07-23T13:55:32;4.93;;;4.53;;
46589;SDS011;32313;48.722;9.362;2022-07-23T13:57:59;4.70;;;4.30;;
46589;SDS011;32313;48.722;9.362;2022-07-23T14:00:26;4.45;;;4.05;;
46589;SDS011;32313;48.722;9.362;2022-07-23T14:02:53;5.80;;;4.38;;
46589;SDS011;32313;48.722;9.362;2022-07-23T14:05:19;4.82;;;4.43;;
46589;SDS011;32313;48.722;9.362;2022-07-23T14:07:45;4.93;;;4.53;;
46589;SDS011;32313;48.722;9.362;2022-07-23T14:10:14;4.47;;;4.13;;
46589;SDS011;32313;48.722;9.362;2022-07-23T14:12:41;5.40;;;4.90;;
46589;SDS011;32313;48.722;9.362;2022-07-23T14:15:07;5.88;;;4.72;;
46589;SDS011;32313;48.722;9.362;2022-07-23T14:17:34;4.47;;;4.05;;
46589;SDS011;32313;48.722;9.362;2022-07-23T14:20:02;4.65;;;4.35;;
46589;SDS011;32313;48.722;9.362;2022-07-23T14:22:29;5.68;;;5.18;;
46589;SDS011;32313;48.722;9.362;2022-07-23T14:24:54;5.90;;;4.70;;
46589;SDS011;32313;48.722;9.362;2022-07-23T14:27:22;5.05;;;4.60;;
46589;SDS011;32313;48.722;9.362;2022-07-23T14:29:49;5.88;;;5.15;;
46589;SDS011;32313;48.722;9.362;2022-07-23T14:32:15;5.05;;;4.65;;
46589;SDS011;32313;48.722;9.362;2022-07-23T14:34:41;4.97;;;4.57;;
46589;SDS011;32313;48.722;9.362;2022-07-23T14:37:07;5.25;;;4.75;;
46589;SDS011;32313;48.722;9.362;2022-07-23T14:39:34;5.10;;;4.70;;
46589;SDS011;32313;48.722;9.362;2022-07-23T14:41:59;5.30;;;4.80;;
46589;SDS011;32313;48.722;9.362;2022-07-23T14:44:25;5.70;;;5.03;;
46589;SDS011;32313;48.722;9.362;2022-07-23T14:46:51;6.90;;;5.28;;
46589;SDS011;32313;48.722;9.362;2022-07-23T14:49:18;5.97;;;5.45;;
46589;SDS011;32313;48.722;9.362;2022-07-23T14:51:43;8.18;;;5.72;;
46589;SDS011;32313;48.722;9.362;2022-07-23T14:54:09;11.07;;;8.60;;
46589;SDS011;32313;48.722;9.362;2022-07-23T14:56:36;6.97;;;6.05;;
46589;SDS011;32313;48.722;9.362;2022-07-23T14:59:03;6.05;;;5.55;;
46589;SDS011;32313;48.722;9.362;2022-07-23T15:01:29;6.43;;;5.82;;
46589;SDS011;32313;48.722;9.362;2022-07-23T15:03:55;6.15;;;5.65;;
46589;SDS011;32313;48.722;9.362;2022-07-23T15:06:20;6.18;;;5.32;;
46589;SDS011;32313;48.722;9.362;2022-07-23T15:08:46;6.28;;;5.18;;
46589;SDS011;32313;48.722;9.362;2022-07-23T15:11:12;6.22;;;5.72;;
46589;SDS011;32313;48.722;9.362;2022-07-23T15:13:38;5.82;;;5.30;;
46589;SDS011;32313;48.722;9.362;2022-07-23T15:16:04;5.68;;;5.18;;
46589;SDS011;32313;48.722;9.362;2022-07-23T15:18:30;6.45;;;5.85;;
46589;SDS011;32313;48.722;9.362;2022-07-23T15:20:56;6.05;;;5.55;;
46589;SDS011;32313;48.722;9.362;2022-07-23T15:23:22;5.70;;;5.15;;
46589;SDS011;32313;48.722;9.362;2022-07-23T15:25:48;6.47;;;5.53;;
46589;SDS011;32313;48.722;9.362;2022-07-23T15:28:14;8.55;;;5.25;;
46589;SDS011;32313;48.722;9.362;2022-07-23T15:30:40;6.32;;;5.82;;
46589;SDS011;32313;48.722;9.362;2022-07-23T15:33:05;6.22;;;5.63;;
46589;SDS011;32313;48.722;9.362;2022-07-23T15:35:31;5.63;;;5.13;;
46589;SDS011;32313;48.722;9.362;2022-07-23T15:37:57;6.00;;;5.50;;
46589;SDS011;32313;48.722;9.362;2022-07-23T15:40:23;6.68;;;5.43;;
46589;SDS011;32313;48.722;9.362;2022-07-23T15:42:49;6.03;;;5.30;;
46589;SDS011;32313;48.722;9.362;2022-07-23T15:45:15;5.70;;;5.22;;